Latest Weather Observations for Badgingarra

IDW60801

Issued at 3:32 pm WST Friday 30 January 2015 (issued every 30 minutes, with the page automatically refreshed every 10 minutes)

About weather observations | Map of weather stations | Latest weather observations for WA | Other Formats
Station Details ID: 009037 Name: BADGINGARRA RESEARCH STN Lat: -30.34 Lon: 115.54 Height: 275.0 m
Data from the previous 72 hours. | See also: Recent months at Badgingarra
Date/Time
WST
Temp
°C
App
Temp
°C
Dew
Point
Rel
Hum
%
Delta-T
°C
Wind Press
QNH
hPa
Press
MSL
hPa
Rain
since 9 am
mm
Dir
 
Spd
km/h
Gust
km/h
Spd
kts
Gust
kts
30/03:30pm 34.7 27.9 7.7 19 15.2 SE 33 46 18 25 - - 0.0
30/03:23pm 35.1 28.8 7.2 18 15.6 SE 30 46 16 25 - - 0.0
30/03:00pm 35.5 30.6 6.7 17 16.0 SE 22 41 12 22 - - 0.0
30/02:30pm 36.6 31.7 6.7 16 16.7 SE 22 32 12 17 - - 0.0
30/02:00pm 34.6 28.9 6.8 18 15.4 ESE 26 39 14 21 - - 0.0
30/01:30pm 35.1 30.7 6.4 17 15.9 ESE 19 26 10 14 - - 0.0
30/01:00pm 36.1 30.9 7.2 17 16.3 E 24 37 13 20 - - 0.0
30/12:30pm 35.3 28.8 6.6 17 16.0 E 30 39 16 21 - - 0.0
30/12:00pm 36.5 30.6 7.5 17 16.4 ENE 28 43 15 23 - - 0.0
30/11:30am 33.2 27.8 6.5 19 14.7 E 24 39 13 21 - - 0.0
30/11:00am 30.5 25.9 8.3 25 12.4 ESE 22 33 12 18 - - 0.0
30/10:30am 29.0 23.9 7.6 26 11.7 ESE 24 33 13 18 - - 0.0
30/10:00am 29.2 23.5 6.6 24 12.2 ESE 26 35 14 19 - - 0.0
30/09:30am 28.6 24.3 7.8 27 11.4 SE 20 32 11 17 - - 0.0
30/09:00am 27.4 24.0 7.8 29 10.7 ESE 15 20 8 11 - - 0.0
30/08:30am 27.9 23.6 7.7 28 11.0 ESE 20 33 11 18 - - 0.0
30/08:00am 26.8 23.3 8.7 32 10.0 ESE 17 26 9 14 - - 0.0
30/07:30am 25.8 24.9 10.8 39 8.5 N 6 13 3 7 - - 0.0
30/07:00am 25.8 22.7 10.4 38 8.7 SSE 17 22 9 12 - - 0.0
30/06:30am 23.9 21.3 13.2 51 6.3 SSE 19 26 10 14 - - 0.0
30/06:00am 21.1 21.1 15.2 69 3.5 SE 9 13 5 7 - - 0.0
30/05:30am 21.0 19.2 16.0 73 3.0 SSE 20 24 11 13 - - 0.0
30/05:00am 19.5 18.4 16.3 82 1.9 SSE 17 19 9 10 - - 0.0
30/04:30am 18.8 18.7 16.0 84 1.7 SSE 11 13 6 7 - - 0.0
30/04:00am 19.3 19.7 16.3 83 1.8 SSW 9 11 5 6 - - 0.0
30/03:30am 19.9 19.3 16.7 82 2.0 S 15 20 8 11 - - 0.0
30/03:00am 19.9 19.6 16.5 81 2.1 S 13 17 7 9 - - 0.0
30/02:30am 20.3 20.3 16.3 78 2.4 SSW 11 13 6 7 - - 0.0
30/02:00am 21.1 20.7 15.2 69 3.5 SSW 11 15 6 8 - - 0.0
30/01:30am 21.2 20.9 15.5 70 3.4 SSE 11 13 6 7 - - 0.0
30/01:00am 20.7 21.0 15.9 74 2.9 SSE 9 11 5 6 - - 0.0
30/12:30am 21.2 21.1 16.0 72 3.2 SSE 11 13 6 7 - - 0.0
30/12:00am 21.2 21.2 16.2 73 3.0 SSW 11 11 6 6 - - 0.0
 
Date/Time
WST
Temp
°C
App
Temp
°C
Dew
Point
Rel
Hum
%
Delta-T
°C
Wind Press
QNH
hPa
Press
MSL
hPa
Rain
since 9 am
mm
Dir
 
Spd
km/h
Gust
km/h
Spd
kts
Gust
kts
29/11:30pm 22.0 22.1 16.5 71 3.4 SW 11 13 6 7 - - 0.0
29/11:00pm 22.2 22.2 14.3 61 4.7 SSW 7 9 4 5 - - 0.0
29/10:30pm 22.6 22.4 13.7 57 5.2 SSW 7 9 4 5 - - 0.0
29/10:00pm 24.7 24.3 14.2 52 6.3 E 9 13 5 7 - - 0.0
29/09:30pm 25.0 24.8 14.8 53 6.2 E 9 13 5 7 - - 0.0
29/09:00pm 25.2 23.9 14.9 52 6.2 E 15 24 8 13 - - 0.0
29/08:30pm 24.8 24.1 15.4 56 5.7 NE 13 17 7 9 - - 0.0
29/08:00pm 25.2 25.7 14.9 52 6.2 NNE 6 9 3 5 - - 0.0
29/07:30pm 26.8 24.0 14.2 46 7.6 NE 22 39 12 21 - - 0.0
29/07:00pm 30.6 28.6 13.8 35 10.2 S 17 22 9 12 - - 0.0
29/06:30pm 30.7 27.5 14.3 36 10.1 S 24 30 13 16 - - 0.0
29/06:00pm 31.3 27.0 14.4 35 10.4 SSW 30 37 16 20 - - 0.0
29/05:30pm 32.1 27.0 13.8 33 11.2 S 33 44 18 24 - - 0.0
29/05:00pm 32.4 27.4 14.1 33 11.3 SSW 33 43 18 23 - - 0.0
29/04:30pm 33.7 29.1 14.7 32 11.8 SSW 32 39 17 21 - - 0.0
29/04:00pm 34.3 29.5 14.7 30 12.2 SSW 33 43 18 23 - - 0.0
29/03:30pm 33.5 28.1 14.0 30 12.0 SSW 35 44 19 24 - - 0.0
29/03:00pm 34.5 30.0 15.4 32 12.1 SSW 33 44 18 24 - - 0.0
29/02:30pm 34.9 29.6 16.2 32 12.0 SW 39 50 21 27 - - 0.0
29/02:00pm 36.5 33.2 17.1 31 12.6 SW 30 43 16 23 - - 0.0
29/01:30pm 36.7 34.4 15.8 29 13.4 SSW 22 41 12 22 - - 0.0
29/01:00pm 36.7 36.1 13.5 25 14.4 S 9 19 5 10 - - 0.0
29/12:30pm 35.5 34.8 13.1 26 13.7 SSW 9 17 5 9 - - 0.0
29/12:00pm 35.2 34.2 14.5 29 12.9 SSW 13 22 7 12 - - 0.0
29/11:30am 33.9 32.6 14.9 32 11.9 SSW 15 24 8 13 - - 0.0
29/11:00am 33.1 32.3 16.0 35 10.8 S 15 24 8 13 - - 0.0
29/10:30am 33.2 33.3 16.5 36 10.7 SSW 11 26 6 14 - - 0.0
29/10:00am 31.6 32.5 16.0 39 9.8 SSW 6 13 3 7 - - 0.0
29/09:30am 30.3 31.0 17.0 44 8.5 S 9 13 5 7 - - 0.0
29/09:00am 29.4 31.3 17.6 49 7.6 SE 4 7 2 4 - - 0.0
29/08:30am 25.9 26.9 17.8 61 5.1 S 9 13 5 7 - - 0.0
29/08:00am 25.2 27.1 18.9 68 4.1 SSE 7 11 4 6 - - 0.0
29/07:30am 22.7 24.6 18.9 79 2.4 S 7 13 4 7 - - 0.0
29/07:00am 21.2 23.0 19.5 90 1.1 S 9 11 5 6 - - 0.0
29/06:30am 20.3 21.7 19.5 95 0.5 S 11 15 6 8 - - 0.0
29/06:00am 19.7 21.1 18.7 94 0.6 S 9 13 5 7 - - 0.0
29/05:30am 20.0 20.0 19.0 94 0.6 S 17 20 9 11 - - 0.0
29/05:00am 20.0 20.5 19.2 95 0.5 S 15 17 8 9 - - 0.0
29/04:30am 20.1 21.1 19.4 96 0.4 SSW 13 17 7 9 - - 0.0
29/04:00am 20.1 21.0 20.1 100 0.0 S 15 20 8 11 - - 0.0
29/03:30am 20.1 20.3 20.1 100 0.0 S 19 24 10 13 - - 0.0
29/03:00am 20.3 20.6 20.3 100 0.0 S 19 22 10 12 - - 0.0
29/02:30am 20.4 21.2 19.9 97 0.3 SSW 15 22 8 12 - - 0.0
29/02:00am 19.5 20.2 18.0 91 0.9 S 11 15 6 8 - - 0.0
29/01:30am 20.0 21.4 17.4 85 1.6 SW 6 9 3 5 - - 0.0
29/01:00am 19.9 19.7 16.7 82 2.0 SW 13 15 7 8 - - 0.0
29/12:30am 20.9 21.6 17.1 79 2.3 WSW 9 13 5 7 - - 0.0
29/12:00am 21.8 21.9 16.5 72 3.3 W 11 13 6 7 - - 0.0
 
Date/Time
WST
Temp
°C
App
Temp
°C
Dew
Point
Rel
Hum
%
Delta-T
°C
Wind Press
QNH
hPa
Press
MSL
hPa
Rain
since 9 am
mm
Dir
 
Spd
km/h
Gust
km/h
Spd
kts
Gust
kts
28/11:30pm 23.8 23.4 16.1 62 4.7 N 13 20 7 11 - - 0.0
28/11:00pm 23.1 22.9 16.6 67 4.0 S 13 19 7 10 - - 0.0
28/10:30pm 23.2 23.2 16.3 65 4.2 SSE 11 15 6 8 - - 0.0
28/10:00pm 22.9 23.6 15.7 64 4.4 S 6 7 3 4 - - 0.0
28/09:30pm 23.8 24.5 16.1 62 4.7 ESE 7 11 4 6 - - 0.0
28/09:00pm 24.3 23.1 16.0 60 5.1 SSW 17 19 9 10 - - 0.0
28/08:30pm 25.4 24.4 15.7 55 6.0 SSW 15 24 8 13 - - 0.0
28/08:00pm 26.7 25.7 15.7 51 6.8 SSW 15 19 8 10 - - 0.0
28/07:30pm 28.0 26.0 15.0 45 8.0 SSW 19 24 10 13 - - 0.0
28/07:00pm 29.6 28.0 15.0 41 9.0 SSW 17 22 9 12 - - 0.0
28/06:30pm 31.0 29.0 15.0 38 9.9 SW 19 26 10 14 - - 0.0
28/06:00pm 32.1 30.2 15.1 35 10.6 SW 19 26 10 14 - - 0.0
28/05:30pm 33.1 31.0 14.7 33 11.5 WSW 19 26 10 14 - - 0.0
28/05:00pm 34.1 32.3 15.5 32 11.7 WSW 19 24 10 13 - - 0.0
28/04:30pm 33.6 30.9 15.6 34 11.4 WSW 24 32 13 17 - - 0.0
28/04:00pm 34.7 31.4 16.1 33 11.9 WSW 28 41 15 22 - - 0.0
28/03:30pm 35.6 33.0 15.9 31 12.6 WSW 24 35 13 19 - - 0.0
28/03:00pm 34.9 31.1 15.7 31 12.2 WSW 30 44 16 24 - - 0.0
28/02:30pm 37.2 35.6 15.1 27 14.0 SW 17 32 9 17 - - 0.0
28/02:00pm 38.5 37.2 10.0 18 16.9 NW 7 13 4 7 - - 0.0
28/01:30pm 37.5 35.8 10.0 19 16.2 ENE 9 24 5 13 - - 0.0
28/01:00pm 37.9 36.9 11.1 20 16.1 NNW 7 20 4 11 - - 0.0
28/12:30pm 36.4 33.8 10.6 21 15.3 NE 15 26 8 14 - - 0.0
28/12:00pm 37.7 34.8 12.3 22 15.5 N 19 33 10 18 - - 0.0
28/11:30am 36.4 32.4 11.9 23 14.8 NNE 24 37 13 20 - - 0.0
28/11:00am 35.5 30.9 11.2 23 14.5 NNE 26 39 14 21 - - 0.0
28/10:30am 35.3 30.5 11.7 24 14.2 NNE 28 37 15 20 - - 0.0
28/10:00am 34.7 29.9 13.0 27 13.3 NNE 30 39 16 21 - - 0.0
28/09:30am 33.3 28.9 12.9 29 12.4 NNE 28 39 15 21 - - 0.0
28/09:00am 31.6 28.5 13.4 33 11.1 NE 22 28 12 15 - - 0.0
28/08:30am 30.5 28.0 14.2 37 10.0 NE 20 28 11 15 - - 0.0
28/08:00am 28.6 26.3 15.8 45 8.0 NE 22 30 12 16 - - 0.0
28/07:30am 27.0 24.8 16.0 51 6.8 NE 22 30 12 16 - - 0.0
28/07:00am 26.4 25.0 16.6 55 6.1 NE 19 24 10 13 - - 0.0
28/06:30am 24.7 25.3 16.7 61 5.0 NNE 9 13 5 7 - - 0.0
28/06:00am 23.6 22.1 16.4 64 4.4 NNE 19 24 10 13 - - 0.0
28/05:30am 24.2 23.0 16.2 61 4.9 NNE 17 22 9 12 - - 0.0
28/05:00am 23.6 24.0 15.4 60 5.0 NNE 7 13 4 7 - - 0.0
28/04:30am 24.9 23.2 15.8 57 5.6 NE 19 26 10 14 - - 0.0
28/04:00am 24.9 23.7 15.0 54 6.0 NNE 15 22 8 12 - - 0.0
28/03:30am 25.6 23.4 14.4 50 6.7 NE 19 26 10 14 - - 0.0
28/03:00am 25.8 24.5 13.6 47 7.3 NE 13 17 7 9 - - 0.0
28/02:30am 26.2 25.0 14.0 47 7.3 NE 13 19 7 10 - - 0.0
28/02:00am 26.8 24.8 13.9 45 7.7 NE 17 20 9 11 - - 0.0
28/01:30am 26.7 24.9 13.4 43 7.9 NE 15 20 8 11 - - 0.0
28/01:00am 26.7 25.0 12.4 41 8.4 ENE 13 20 7 11 - - 0.0
28/12:30am 27.8 24.8 10.5 34 9.9 E 17 22 9 12 - - 0.0
28/12:00am 24.7 22.0 10.2 40 8.1 SE 15 17 8 9 - - 0.0
 
Date/Time
WST
Temp
°C
App
Temp
°C
Dew
Point
Rel
Hum
%
Delta-T
°C
Wind Press
QNH
hPa
Press
MSL
hPa
Rain
since 9 am
mm
Dir
 
Spd
km/h
Gust
km/h
Spd
kts
Gust
kts
27/11:30pm 24.9 21.5 10.4 40 8.1 SSE 19 22 10 12 - - 0.0
27/11:00pm 24.9 21.6 10.8 41 8.0 SSE 19 20 10 11 - - 0.0
27/10:30pm 25.4 21.9 10.8 40 8.3 S 20 26 11 14 - - 0.0
27/10:00pm 26.1 22.5 10.7 38 8.7 S 20 24 11 13 - - 0.0
27/09:30pm 26.8 22.4 10.5 36 9.3 S 24 30 13 16 - - 0.0
27/09:00pm 26.9 22.9 10.6 36 9.3 S 22 28 12 15 - - 0.0
27/08:30pm 27.5 23.0 10.2 34 9.8 S 24 32 13 17 - - 0.0
27/08:00pm 28.4 23.8 9.6 31 10.6 SSW 24 32 13 17 - - 0.0
27/07:30pm 29.3 24.6 9.4 29 11.2 SSW 24 32 13 17 - - 0.0
27/07:00pm 30.9 25.4 9.2 26 12.3 SSW 28 37 15 20 - - 0.0
27/06:30pm 32.3 26.2 9.8 25 13.0 SSW 32 39 17 21 - - 0.0
27/06:00pm 33.5 27.5 10.8 25 13.4 SSW 33 41 18 22 - - 0.0
27/05:30pm 34.3 29.2 12.0 25 13.4 SSW 30 37 16 20 - - 0.0
27/05:00pm 34.9 30.4 12.5 25 13.6 SSW 28 35 15 19 - - 0.0
27/04:30pm 35.6 31.3 13.1 25 13.8 SSW 28 37 15 20 - - 0.0
27/04:11pm 36.0 33.3 12.9 25 14.2 S 19 41 10 22 - - 0.0
27/04:00pm 36.3 34.8 11.9 23 14.8 SSW 11 17 6 9 - - 0.0

Other Formats:

Comma delimited format used in spreadsheet applications
http://www.bom.gov.au/fwo/IDW60801/IDW60801.94603.axf

JavaScript Object Notation format (JSON) in row-major order
http://www.bom.gov.au/fwo/IDW60801/IDW60801.94603.json